Date,TemperatureHighF,TemperatureAvgF,TemperatureLowF,DewpointHighF,DewpointAvgF,DewpointLowF,HumidityHigh,HumidityAvg,HumidityLow,PressureMaxIn,PressureMinIn,WindSpeedMaxMPH,WindSpeedAvgMPH,GustSpeedMaxMPH,PrecipitationSumIn
2013-1-1,16.0,4.8,-4.0,-99.9,-99.9,-99.9,0,0,100,0.00,40.00,0,-375,2,0.00
2013-1-2,18.0,6.0,-8.0,-99.9,-99.9,-99.9,0,0,100,0.00,40.00,0,-256,9,0.00
2013-1-3,18.0,-2.3,-12.0,-99.9,-99.9,-99.9,0,0,100,0.00,40.00,0,-400,5,0.00
2013-1-4,30.0,3.7,-12.0,-99.9,-99.9,-99.9,0,0,100,0.00,40.00,1,-463,5,0.00
2013-1-5,34.0,6.3,-11.0,-99.9,-99.9,-99.9,0,0,100,0.00,40.00,1,-428,6,0.00
2013-1-6,34.0,7.7,-11.0,-99.9,-99.9,-99.9,0,0,100,0.00,40.00,1,-473,5,0.00
2013-1-7,36.0,13.2,-1.0,-99.9,-99.9,-99.9,0,0,100,0.00,40.00,1,-499,10,0.00
2013-1-8,33.0,12.8,1.0,-99.9,-99.9,-99.9,0,0,100,0.00,40.00,4,-462,12,0.00
2013-1-9,37.0,16.2,-2.0,-99.9,-99.9,-99.9,0,0,100,0.00,40.00,3,-378,11,0.00
2013-1-10,44.0,20.5,6.0,-99.9,-99.9,-99.9,0,0,100,0.00,40.00,2,-485,7,0.00
2013-1-11,24.0,15.5,4.0,-99.9,-99.9,-99.9,0,0,100,0.00,40.00,2,-365,13,0.01
2013-1-12,14.0,-1.1,-13.0,-99.9,-99.9,-99.9,0,0,100,0.00,40.00,2,-555,12,0.00
2013-1-13,9.0,-1.9,-13.0,-99.9,-99.9,-99.9,0,0,100,0.00,40.00,0,-450,1,0.00
2013-1-14,6.0,-12.2,-26.0,-99.9,-99.9,-99.9,0,0,100,0.00,40.00,0,-388,7,0.00
2013-1-15,8.0,-6.0,-27.0,-99.9,-99.9,-99.9,0,0,100,0.00,40.00,0,-439,0,0.01
2013-1-16,29.0,14.5,1.0,-99.9,-99.9,-99.9,0,0,100,0.00,40.00,3,-414,10,0.01
2013-1-17,36.0,10.3,-4.0,-99.9,-99.9,-99.9,0,0,100,0.00,40.00,2,-449,5,0.00
2013-1-18,40.0,12.4,-4.0,-99.9,-99.9,-99.9,0,0,100,0.00,40.00,3,-478,10,0.00
2013-1-19,39.0,13.4,-1.0,-99.9,-99.9,-99.9,0,0,100,0.00,40.00,4,-516,10,0.00
2013-1-20,39.0,12.2,-5.0,-99.9,-99.9,-99.9,0,0,100,0.00,40.00,3,-447,8,0.00
2013-1-21,40.0,15.4,-3.0,-99.9,-99.9,-99.9,0,0,100,0.00,40.00,5,-499,12,0.00
2013-1-22,45.0,19.4,-3.0,-99.9,-99.9,-99.9,0,0,100,0.00,40.00,2,-721,7,0.00
2013-1-23,48.0,20.2,1.0,-99.9,-99.9,-99.9,0,0,100,0.00,40.00,1,-459,5,0.00
2013-1-24,47.0,28.5,9.0,-99.9,-99.9,-99.9,0,0,100,0.00,40.00,5,-499,19,0.01
2013-1-25,41.0,33.4,29.0,-99.9,-99.9,-99.9,0,0,100,0.00,40.00,3,-181,11,0.01
2013-1-26,42.0,33.5,21.0,-99.9,-99.9,-99.9,0,0,100,0.00,40.00,3,-272,8,0.00
2013-1-27,43.0,30.9,18.0,-99.9,-99.9,-99.9,0,0,100,0.00,40.00,4,-58,9,0.01
2013-1-28,35.0,25.5,12.0,-99.9,-99.9,-99.9,0,0,100,0.00,40.00,2,-420,17,0.01
2013-1-29,17.0,11.8,7.0,-99.9,-99.9,-99.9,0,0,100,0.00,40.00,0,-562,7,0.01
2013-1-30,23.0,14.6,6.0,-99.9,-99.9,-99.9,0,0,100,0.00,40.00,0,-230,0,0.01
2013-1-31,30.0,24.8,12.0,-99.9,-99.9,-99.9,0,0,100,0.00,40.00,1,-320,11,0.01
2013-2-1,30.0,23.8,14.0,-99.9,-99.9,-99.9,0,0,100,0.00,40.00,1,-285,18,0.01
2013-2-2,38.0,17.4,1.0,-99.9,-99.9,-99.9,0,0,100,0.00,40.00,3,-384,9,0.00
2013-2-3,38.0,20.8,6.0,-99.9,-99.9,-99.9,0,0,100,0.00,40.00,5,-332,12,0.00
2013-2-4,36.0,18.5,-2.0,-99.9,-99.9,-99.9,0,0,100,0.00,40.00,5,-332,13,0.00
2013-2-5,44.0,22.5,5.0,-99.9,-99.9,-99.9,0,0,100,0.00,40.00,4,-404,12,0.00
2013-2-6,39.0,23.8,10.0,-99.9,-99.9,-99.9,0,0,100,0.00,40.00,3,-340,10,0.01
2013-2-7,34.0,16.0,-1.0,-99.9,-99.9,-99.9,0,0,100,0.00,40.00,4,-380,9,0.01
2013-2-8,45.0,21.6,-3.0,-99.9,-99.9,-99.9,0,0,100,0.00,40.00,4,-431,13,0.01
2013-2-9,32.0,23.3,17.0,-99.9,-99.9,-99.9,0,0,100,0.00,40.00,0,-210,1,0.01
2013-2-10,25.0,16.9,2.0,-99.9,-99.9,-99.9,0,0,100,0.00,40.00,4,-420,10,0.01
2013-2-11,24.0,10.0,-5.0,-99.9,-99.9,-99.9,0,0,100,0.00,40.00,0,-316,9,0.01
2013-2-12,23.0,4.1,-13.0,-99.9,-99.9,-99.9,0,0,100,0.00,40.00,5,-380,12,0.00
2013-2-13,28.0,18.1,6.0,-99.9,-99.9,-99.9,0,0,100,0.00,40.00,1,-384,13,0.01
2013-2-14,26.0,19.3,12.0,-99.9,-99.9,-99.9,0,0,100,0.00,40.00,0,-237,0,0.01
2013-2-15,23.0,19.6,17.0,-99.9,-99.9,-99.9,0,0,100,0.00,40.00,3,-400,16,0.01
2013-2-16,40.0,17.5,-1.0,-99.9,-99.9,-99.9,0,0,100,0.00,40.00,6,-314,14,0.00
2013-2-17,44.0,20.5,2.0,-99.9,-99.9,-99.9,0,0,100,0.00,40.00,5,-411,14,0.01
2013-2-18,26.0,16.2,-4.0,-99.9,-99.9,-99.9,0,0,100,0.00,40.00,6,-305,15,0.01
2013-2-19,37.0,10.4,-10.0,-99.9,-99.9,-99.9,0,0,100,0.00,40.00,4,-354,11,0.00
2013-2-20,36.0,24.4,11.0,-99.9,-99.9,-99.9,0,0,100,0.00,40.00,3,-332,11,0.01
2013-2-21,26.0,20.3,9.0,-99.9,-99.9,-99.9,0,0,100,0.00,40.00,4,-404,12,0.01
2013-2-22,22.0,11.3,-6.0,-99.9,-99.9,-99.9,0,0,100,0.00,40.00,5,-549,12,0.00
2013-2-23,32.0,12.5,-9.0,-99.9,-99.9,-99.9,0,0,100,0.00,40.00,0,-629,0,0.00
2013-2-24,25.0,19.8,16.0,-99.9,-99.9,-99.9,0,0,100,0.00,40.00,3,-578,11,0.01
2013-2-25,18.0,11.0,3.0,-99.9,-99.9,-99.9,0,0,100,0.00,40.00,0,-250,0,0.00
2013-2-26,21.0,14.3,4.0,-99.9,-99.9,-99.9,0,0,100,0.00,40.00,0,-263,7,0.01
2013-2-27,24.0,12.7,-7.0,-99.9,-99.9,-99.9,0,0,100,0.00,40.00,4,-159,9,0.01
2013-2-28,29.0,11.3,-9.0,-99.9,-99.9,-99.9,0,0,100,0.00,40.00,6,-94,16,0.01
2013-3-1,30.0,25.5,21.0,-99.9,-99.9,-99.9,0,0,100,0.00,40.00,0,-186,5,0.01
2013-3-2,45.0,32.3,25.0,-99.9,-99.9,-99.9,0,0,100,0.00,40.00,3,-278,9,0.01
2013-3-3,48.0,32.0,16.0,-99.9,-99.9,-99.9,0,0,100,0.00,40.00,7,-281,17,0.00
2013-3-4,35.0,23.2,-4.0,-99.9,-99.9,-99.9,0,0,100,0.00,40.00,4,-92,15,0.01
2013-3-5,42.0,12.5,-12.0,-99.9,-99.9,-99.9,0,0,100,0.00,40.00,3,-181,10,0.01
2013-3-6,52.0,26.7,1.0,-99.9,-99.9,-99.9,0,0,100,0.00,40.00,5,-194,11,0.01
2013-3-7,53.0,34.8,16.0,-99.9,-99.9,-99.9,0,0,100,0.00,40.00,4,-368,11,0.01
2013-3-8,50.0,31.8,16.0,-99.9,-99.9,-99.9,0,0,100,0.00,40.00,4,-249,15,0.00
2013-3-9,32.0,25.8,11.0,-99.9,-99.9,-99.9,0,0,100,0.00,40.00,0,-87,1,0.04
2013-3-10,33.0,18.2,6.0,-99.9,-99.9,-99.9,0,0,100,0.00,40.00,4,-240,13,0.01
2013-3-11,35.0,20.4,5.0,-99.9,-99.9,-99.9,0,0,100,0.00,40.00,0,-230,0,0.00
2013-3-12,40.0,31.6,22.0,-99.9,-99.9,-99.9,0,0,100,0.00,40.00,6,-147,14,0.01
2013-3-13,48.0,31.7,15.0,-99.9,-99.9,-99.9,0,0,100,0.00,40.00,6,-191,14,0.00
2013-3-14,53.0,34.8,17.0,-99.9,-99.9,-99.9,0,0,100,0.00,40.00,5,-199,13,0.00
2013-3-15,56.0,36.8,21.0,-99.9,-99.9,-99.9,0,0,100,0.00,40.00,7,-118,22,0.00
2013-3-16,43.0,34.0,26.0,-99.9,-99.9,-99.9,0,0,100,0.00,40.00,0,-370,0,0.01
2013-3-17,36.0,28.0,20.0,-99.9,-99.9,-99.9,0,0,100,0.00,40.00,0,-333,0,0.01
2013-3-18,35.0,25.3,13.0,-99.9,-99.9,-99.9,0,0,100,0.00,40.00,0,-241,0,0.01
2013-3-19,38.0,29.7,13.0,-99.9,-99.9,-99.9,0,0,100,0.00,40.00,6,-312,18,0.01
2013-3-20,44.0,27.3,6.0,-99.9,-99.9,-99.9,0,0,100,0.00,40.00,2,-379,11,0.01
2013-3-21,42.0,27.8,21.0,-99.9,-99.9,-99.9,0,0,100,0.00,40.00,0,-193,0,0.01
2013-3-22,35.0,21.5,5.0,-99.9,-99.9,-99.9,0,0,100,0.00,40.00,3,-200,12,0.01
2013-3-23,19.0,16.1,12.0,-99.9,-99.9,-99.9,0,0,100,0.00,40.00,0,-230,0,0.02
2013-3-24,17.0,9.0,-6.0,-99.9,-99.9,-99.9,0,0,100,0.00,40.00,0,-190,0,0.01
2013-3-25,31.0,7.4,-13.0,-99.9,-99.9,-99.9,0,0,100,0.00,40.00,5,-332,11,0.00
2013-3-26,46.0,26.7,-1.0,-99.9,-99.9,-99.9,0,0,100,0.00,40.00,5,-207,16,0.01
2013-3-27,48.0,33.9,24.0,-99.9,-99.9,-99.9,0,0,100,0.00,40.00,2,-370,11,0.01
2013-3-28,50.0,33.1,15.0,-99.9,-99.9,-99.9,0,0,100,0.00,40.00,4,-173,12,0.00
2013-3-29,48.0,35.1,22.0,-99.9,-99.9,-99.9,0,0,100,0.00,40.00,3,-178,14,0.00
2013-3-30,49.0,35.5,27.0,-99.9,-99.9,-99.9,0,0,100,0.00,40.00,6,-191,19,0.00
2013-3-31,53.0,33.6,19.0,-99.9,-99.9,-99.9,0,0,100,0.00,40.00,5,-306,11,0.01
2013-4-1,50.0,37.0,21.0,-99.9,-99.9,-99.9,0,0,100,0.00,40.00,2,-96,16,0.00
2013-4-2,40.0,31.5,21.0,-99.9,-99.9,-99.9,0,0,100,0.00,40.00,0,-200,7,0.00
2013-4-3,46.0,31.5,16.0,-99.9,-99.9,-99.9,0,0,100,0.00,40.00,0,-120,4,0.01
2013-4-4,53.0,37.7,21.0,-99.9,-99.9,-99.9,0,0,100,0.00,40.00,0,-230,9,0.00
2013-4-5,53.0,39.6,28.0,-99.9,-99.9,-99.9,0,0,100,0.00,40.00,0,-217,0,0.01
2013-4-6,47.0,35.3,27.0,-99.9,-99.9,-99.9,0,0,100,0.00,40.00,0,-154,0,0.01
2013-4-7,45.0,35.1,30.0,-99.9,-99.9,-99.9,0,0,100,0.00,40.00,0,-222,0,0.00
2013-4-8,53.0,39.5,27.0,-99.9,-99.9,-99.9,0,0,100,0.00,40.00,0,-100,0,0.00
2013-4-9,38.0,29.0,16.0,-99.9,-99.9,-99.9,0,0,100,0.00,40.00,0,-346,0,0.00
2013-4-10,32.0,19.4,8.0,-99.9,-99.9,-99.9,0,0,100,0.00,40.00,0,-200,5,0.00
2013-4-11,38.0,30.5,21.0,-99.9,-99.9,-99.9,0,0,100,0.00,40.00,0,-375,0,0.01
2013-4-12,45.0,32.9,24.0,-99.9,-99.9,-99.9,0,0,100,0.00,40.00,0,-200,10,0.01
2013-4-13,48.0,34.2,16.0,-99.9,-99.9,-99.9,0,0,100,0.00,40.00,0,-280,3,0.01
2013-4-14,31.0,24.4,20.0,-99.9,-99.9,-99.9,0,0,100,0.00,40.00,0,-250,17,0.03
2013-4-15,32.0,28.6,24.0,-99.9,-99.9,-99.9,0,0,100,0.00,40.00,0,-333,0,0.03
2013-4-16,48.0,34.1,20.0,-99.9,-99.9,-99.9,0,0,100,0.00,40.00,0,-222,0,0.01
2013-4-17,32.0,24.5,13.0,-99.9,-99.9,-99.9,0,0,100,0.00,40.00,0,-240,0,0.02
2013-4-18,20.0,14.8,8.0,-99.9,-99.9,-99.9,0,0,100,0.00,40.00,3,-240,12,0.01
2013-4-19,38.0,26.4,12.0,-99.9,-99.9,-99.9,0,0,100,0.00,40.00,6,-268,17,0.00
2013-4-20,41.0,32.0,25.0,-99.9,-99.9,-99.9,0,0,100,0.00,40.00,4,-230,11,0.01
2013-4-21,46.0,36.3,27.0,-99.9,-99.9,-99.9,0,0,100,0.00,40.00,4,-198,11,0.02
2013-4-22,42.0,34.9,27.0,-99.9,-99.9,-99.9,0,0,100,0.00,40.00,6,-172,16,0.01
2013-4-23,33.0,26.5,22.0,-99.9,-99.9,-99.9,0,0,100,0.00,40.00,7,-93,16,0.03
2013-4-24,42.0,34.3,22.0,-99.9,-99.9,-99.9,0,0,100,0.00,40.00,6,-248,18,0.00
2013-4-25,53.0,34.2,14.0,-99.9,-99.9,-99.9,0,0,100,0.00,40.00,5,-369,13,0.00
2013-4-26,52.0,39.8,19.0,-99.9,-99.9,-99.9,0,0,100,0.00,40.00,5,-708,13,0.00
2013-4-27,56.0,35.7,20.0,-99.9,-99.9,-99.9,0,0,100,0.00,40.00,5,-422,11,0.00
2013-4-28,61.0,41.7,22.0,-99.9,-99.9,-99.9,0,0,100,0.00,40.00,5,-259,14,0.00
2013-4-29,60.0,48.2,30.0,-99.9,-99.9,-99.9,0,0,100,0.00,40.00,2,-200,13,0.01
2013-4-30,58.0,44.1,32.0,-99.9,-99.9,-99.9,0,0,100,0.00,40.00,0,-423,0,0.00
2013-5-1,35.0,29.7,23.0,-99.9,-99.9,-99.9,0,0,100,0.00,40.00,0,-71,0,0.04
2013-5-2,37.0,26.5,15.0,-99.9,-99.9,-99.9,0,0,100,0.00,40.00,0,-166,0,0.01
2013-5-3,52.0,33.5,10.0,-99.9,-99.9,-99.9,0,0,100,0.00,40.00,0,-522,0,0.00
2013-5-4,54.0,38.1,24.0,-99.9,-99.9,-99.9,0,0,100,0.00,40.00,0,-222,0,0.00
2013-5-5,54.0,42.4,29.0,-99.9,-99.9,-99.9,0,0,100,0.00,40.00,0,-320,0,0.00
2013-5-6,52.0,34.3,32.0,-99.9,-99.9,-99.9,0,0,100,0.00,40.00,0,-381,0,0.00
2013-5-7,54.0,40.4,35.0,-99.9,-99.9,-99.9,0,0,100,0.00,40.00,0,-428,0,0.00
2013-5-8,46.0,36.6,27.0,-99.9,-99.9,-99.9,0,0,100,0.00,40.00,0,-242,0,0.02
2013-5-9,48.0,35.8,31.0,-99.9,-99.9,-99.9,0,0,100,0.00,40.00,0,-150,0,0.03
2013-5-10,53.0,36.1,24.0,-99.9,-99.9,-99.9,0,0,100,0.00,40.00,0,-259,0,0.00
2013-5-11,56.0,36.5,26.0,-99.9,-99.9,-99.9,0,0,100,0.00,40.00,0,-280,1,0.00
2013-5-12,60.0,45.2,31.0,-99.9,-99.9,-99.9,0,0,100,0.00,40.00,1,-120,12,0.00
2013-5-13,67.0,48.7,33.0,-99.9,-99.9,-99.9,0,0,100,0.00,40.00,4,-135,11,0.00
2013-5-14,69.0,49.6,34.0,-99.9,-99.9,-99.9,0,0,100,0.00,40.00,4,-322,12,0.00
2013-5-15,58.0,46.8,33.0,-99.9,-99.9,-99.9,0,0,100,0.00,40.00,0,-214,9,0.01
2013-5-16,63.0,47.2,34.0,-99.9,-99.9,-99.9,0,0,100,0.00,40.00,1,-88,12,0.01
2013-5-17,68.0,50.3,33.0,-99.9,-99.9,-99.9,0,0,100,0.00,40.00,1,-423,10,0.00
2013-5-18,56.0,41.8,30.0,-99.9,-99.9,-99.9,0,0,100,0.00,40.00,0,-120,0,0.01
2013-5-19,45.0,31.9,35.0,-99.9,-99.9,-99.9,0,0,100,0.00,40.00,0,-40,0,0.01
2013-5-20,47.0,36.5,34.0,-99.9,-99.9,-99.9,0,0,100,0.00,40.00,0,-125,0,0.02
2013-5-21,55.0,40.3,30.0,-99.9,-99.9,-99.9,0,0,100,0.00,40.00,0,-216,2,0.01
2013-5-22,66.0,45.3,30.0,-99.9,-99.9,-99.9,0,0,100,0.00,40.00,1,-432,13,0.00
2013-5-23,69.0,56.1,40.0,-99.9,-99.9,-99.9,0,0,100,0.00,40.00,3,-205,12,0.01
2013-5-24,67.0,50.8,31.0,-99.9,-99.9,-99.9,0,0,100,0.00,40.00,0,-408,0,0.00
2013-5-25,70.0,51.4,33.0,-99.9,-99.9,-99.9,0,0,100,0.00,40.00,0,-285,0,0.00
2013-5-26,69.0,45.3,33.0,-99.9,-99.9,-99.9,0,0,100,0.00,40.00,0,-304,9,0.00
2013-5-27,64.0,49.4,30.0,-99.9,-99.9,-99.9,0,0,100,0.00,40.00,0,-255,10,0.00
2013-5-28,63.0,46.4,32.0,-99.9,-99.9,-99.9,0,0,100,0.00,40.00,0,-130,1,0.00
2013-5-29,50.0,38.7,32.0,-99.9,-99.9,-99.9,0,0,100,0.00,40.00,0,-163,0,0.00
2013-5-30,52.0,41.1,33.0,-99.9,-99.9,-99.9,0,0,100,0.00,40.00,5,-249,20,0.01
2013-5-31,54.0,44.9,33.0,-99.9,-99.9,-99.9,0,0,100,0.00,40.00,0,-266,0,0.00
2013-6-1,58.0,43.1,26.0,-99.9,-99.9,-99.9,0,0,100,0.00,40.00,1,-48,9,0.00
2013-6-2,69.0,50.3,30.0,-99.9,-99.9,-99.9,0,0,100,0.00,40.00,4,-219,16,0.00
2013-6-3,70.0,51.7,37.0,-99.9,-99.9,-99.9,0,0,100,0.00,40.00,4,-260,20,0.00
2013-6-4,69.0,52.9,31.0,-99.9,-99.9,-99.9,0,0,100,0.00,40.00,4,-350,18,0.54
2013-6-5,67.0,50.7,33.0,-99.9,-99.9,-99.9,0,0,100,0.00,40.00,1,-255,14,0.54
2013-6-6,65.0,47.4,32.0,-99.9,-99.9,-99.9,0,0,100,0.00,40.00,0,-182,5,0.00
2013-6-7,65.0,50.6,38.0,-99.9,-99.9,-99.9,0,0,100,0.00,40.00,0,-102,7,0.00
2013-6-8,66.0,53.1,38.0,-99.9,-99.9,-99.9,0,0,100,0.00,40.00,0,-163,0,0.00
2013-6-9,75.0,55.7,34.0,-99.9,-99.9,-99.9,0,0,100,0.00,40.00,6,-194,16,0.00
2013-6-10,78.0,60.8,42.0,-99.9,-99.9,-99.9,0,0,100,0.00,40.00,4,-272,16,0.00
2013-6-11,77.0,62.4,40.0,-99.9,-99.9,-99.9,0,0,100,0.00,40.00,0,-395,6,0.00
2013-6-12,77.0,60.8,35.0,-99.9,-99.9,-99.9,0,0,100,0.00,40.00,0,-531,3,0.00
2013-6-13,77.0,63.1,47.0,-99.9,-99.9,-99.9,0,0,100,0.00,40.00,0,-234,7,0.00
2013-6-14,76.0,61.3,40.0,-99.9,-99.9,-99.9,0,0,100,0.00,40.00,0,-143,0,0.00
2013-6-15,72.0,57.9,34.0,-99.9,-99.9,-99.9,0,0,100,0.00,40.00,0,-154,8,0.00
2013-6-16,66.0,53.0,37.0,-99.9,-99.9,-99.9,0,0,100,0.00,40.00,1,-300,19,0.00
2013-6-17,70.0,49.7,36.0,-99.9,-99.9,-99.9,0,0,100,0.00,40.00,4,-191,18,0.00
2013-6-18,74.0,61.2,39.0,-99.9,-99.9,-99.9,0,0,100,0.00,40.00,0,-229,6,0.00
2013-6-19,77.0,60.3,38.0,-99.9,-99.9,-99.9,0,0,100,0.00,40.00,0,-242,2,0.00
2013-6-20,72.0,52.5,32.0,-99.9,-99.9,-99.9,0,0,100,0.00,40.00,0,-227,1,0.00
2013-6-22,75.0,68.4,57.0,-99.9,-99.9,-99.9,0,0,100,0.00,40.00,0,-272,8,0.00
2013-6-23,72.0,52.0,32.0,-99.9,-99.9,-99.9,0,0,100,0.00,40.00,3,-154,19,0.00
2013-6-24,73.0,55.7,38.0,-99.9,-99.9,-99.9,0,0,100,0.00,40.00,0,-138,8,0.00
2013-6-25,71.0,39.6,40.0,-99.9,-99.9,-99.9,0,0,100,0.00,40.00,1,-48,10,0.00
2013-6-26,80.0,61.2,39.0,-99.9,-99.9,-99.9,0,0,100,0.00,40.00,0,-182,10,0.00
2013-6-27,83.0,62.0,44.0,-99.9,-99.9,-99.9,0,0,100,0.00,40.00,0,-143,0,0.00
2013-6-28,85.0,66.5,45.0,-99.9,-99.9,-99.9,0,0,100,0.00,40.00,2,-178,14,0.00
2013-6-29,78.0,63.8,48.0,-99.9,-99.9,-99.9,0,0,100,0.00,40.00,3,-230,18,0.00
2013-6-30,76.0,57.7,42.0,-99.9,-99.9,-99.9,0,0,100,0.00,40.00,0,-71,8,0.01
2013-7-1,72.0,56.9,38.0,-99.9,-99.9,-99.9,0,0,100,0.00,40.00,0,-218,0,0.01
2013-7-2,74.0,56.1,38.0,-99.9,-99.9,-99.9,0,0,100,0.00,40.00,1,-133,12,0.00
2013-7-3,73.0,49.8,37.0,-99.9,-99.9,-99.9,0,0,100,0.00,40.00,0,-97,0,0.00
2013-7-4,76.0,56.1,39.0,-99.9,-99.9,-99.9,0,0,100,0.00,40.00,4,-146,14,0.00
2013-7-5,70.0,47.6,49.0,-99.9,-99.9,-99.9,0,0,100,0.00,40.00,0,-118,0,0.01
2013-7-6,72.0,57.5,45.0,-99.9,-99.9,-99.9,0,0,100,0.00,40.00,2,-206,12,0.01
2013-7-7,76.0,62.5,44.0,-99.9,-99.9,-99.9,0,0,100,0.00,40.00,6,-76,14,0.00
2013-7-8,72.0,54.9,45.0,-99.9,-99.9,-99.9,0,0,100,0.00,40.00,5,-173,18,0.01
2013-7-9,76.0,60.0,46.0,-99.9,-99.9,-99.9,0,0,100,0.00,40.00,4,-146,15,0.00
2013-7-10,80.0,63.2,44.0,-99.9,-99.9,-99.9,0,0,100,0.00,40.00,6,-278,14,0.00
2013-7-11,81.0,69.1,47.0,-99.9,-99.9,-99.9,0,0,100,0.00,40.00,5,-249,10,0.00
2013-7-12,73.0,58.1,48.0,-99.9,-99.9,-99.9,0,0,100,0.00,40.00,1,-88,10,0.01
2013-7-13,74.0,61.2,50.0,-99.9,-99.9,-99.9,0,0,100,0.00,40.00,5,-374,13,0.00
2013-7-14,69.0,58.0,47.0,-99.9,-99.9,-99.9,0,0,100,0.00,40.00,1,-212,14,0.00
2013-7-15,70.0,55.7,45.0,-99.9,-99.9,-99.9,0,0,100,0.00,40.00,1,-172,12,0.00
2013-7-16,75.0,61.3,38.0,-99.9,-99.9,-99.9,0,0,100,0.00,40.00,5,-183,13,0.00
2013-7-17,78.0,59.1,43.0,-99.9,-99.9,-99.9,0,0,100,0.00,40.00,6,-189,15,0.01
2013-7-18,76.0,55.9,44.0,-99.9,-99.9,-99.9,0,0,100,0.00,40.00,5,-131,14,0.01
2013-7-19,76.0,61.6,49.0,-99.9,-99.9,-99.9,0,0,100,0.00,40.00,5,-180,16,0.01
2013-7-20,77.0,60.3,44.0,-99.9,-99.9,-99.9,0,0,100,0.00,40.00,5,-420,14,0.00
2013-7-21,77.0,64.7,40.0,-99.9,-99.9,-99.9,0,0,100,0.00,40.00,6,-220,16,0.00
2013-7-22,79.0,65.0,45.0,-99.9,-99.9,-99.9,0,0,100,0.00,40.00,6,-217,18,0.00
2013-7-23,80.0,63.8,38.0,-99.9,-99.9,-99.9,0,0,100,0.00,40.00,5,-356,14,0.00
2013-7-24,76.0,61.6,46.0,-99.9,-99.9,-99.9,0,0,100,0.00,40.00,5,-104,26,0.00
2013-7-25,68.0,54.7,46.0,-99.9,-99.9,-99.9,0,0,100,0.00,40.00,0,-171,7,0.03
2013-7-26,73.0,54.3,40.0,-99.9,-99.9,-99.9,0,0,100,0.00,40.00,4,-52,16,0.01
2013-7-27,71.0,53.9,43.0,-99.9,-99.9,-99.9,0,0,100,0.00,40.00,3,-100,12,0.02
2013-7-28,63.0,52.8,49.0,-99.9,-99.9,-99.9,0,0,100,0.00,40.00,0,-32,3,0.02
2013-7-29,59.0,51.3,46.0,-99.9,-99.9,-99.9,0,0,100,0.00,40.00,0,-214,0,0.01
2013-7-30,66.0,51.6,40.0,-99.9,-99.9,-99.9,0,0,100,0.00,40.00,2,-142,18,0.00
2013-7-31,74.0,53.7,40.0,-99.9,-99.9,-99.9,0,0,100,0.00,40.00,5,-199,12,0.00
2013-8-1,71.0,59.6,43.0,-99.9,-99.9,-99.9,0,0,100,0.00,40.00,1,-95,12,0.00
2013-8-2,75.0,57.7,42.0,-99.9,-99.9,-99.9,0,0,100,0.00,40.00,4,-236,14,0.00
2013-8-3,75.0,53.8,45.0,-99.9,-99.9,-99.9,0,0,100,0.00,40.00,5,-179,19,0.00
2013-8-4,73.0,57.1,41.0,-99.9,-99.9,-99.9,0,0,100,0.00,40.00,4,-184,14,0.00
2013-8-5,69.0,53.5,40.0,-99.9,-99.9,-99.9,0,0,100,0.00,40.00,2,-272,14,0.00
2013-8-6,72.0,53.8,40.0,-99.9,-99.9,-99.9,0,0,100,0.00,40.00,1,-242,8,0.00
2013-8-7,64.0,51.0,43.0,-99.9,-99.9,-99.9,0,0,100,0.00,40.00,0,-77,9,0.00
2013-8-8,61.0,50.5,39.0,-99.9,-99.9,-99.9,0,0,100,0.00,40.00,1,-94,12,0.00
2013-8-9,63.0,50.6,39.0,-99.9,-99.9,-99.9,0,0,100,0.00,40.00,2,-217,17,0.00
2013-8-10,72.0,53.6,36.0,-99.9,-99.9,-99.9,0,0,100,0.00,40.00,6,-129,16,0.00
2013-8-11,69.0,49.1,40.0,-99.9,-99.9,-99.9,0,0,100,0.00,40.00,5,-114,14,0.00
2013-8-12,70.0,55.1,40.0,-99.9,-99.9,-99.9,0,0,100,0.00,40.00,2,-256,10,0.00
2013-8-13,64.0,48.8,40.0,-99.9,-99.9,-99.9,0,0,100,0.00,40.00,1,-333,11,0.01
2013-8-14,68.0,46.8,36.0,-99.9,-99.9,-99.9,0,0,100,0.00,40.00,6,-249,14,0.01
2013-8-15,72.0,57.8,38.0,-99.9,-99.9,-99.9,0,0,100,0.00,40.00,6,-348,15,0.00
2013-8-16,77.0,63.3,45.0,-99.9,-99.9,-99.9,0,0,100,0.00,40.00,5,-475,12,0.00
2013-8-17,74.0,67.7,56.0,-99.9,-99.9,-99.9,0,0,100,0.00,40.00,1,-428,8,0.00
2013-8-18,75.0,60.6,45.0,-99.9,-99.9,-99.9,0,0,100,0.00,40.00,6,-249,13,0.00
2013-8-19,77.0,54.3,39.0,-99.9,-99.9,-99.9,0,0,100,0.00,40.00,3,-74,12,0.00
2013-8-20,77.0,62.4,42.0,-99.9,-99.9,-99.9,0,0,100,0.00,40.00,4,-181,11,0.00
2013-8-21,76.0,59.9,44.0,-99.9,-99.9,-99.9,0,0,100,0.00,40.00,4,0,12,0.00
2013-8-22,69.0,53.4,46.0,-99.9,-99.9,-99.9,0,0,100,0.00,40.00,1,-185,6,0.01
2013-8-23,73.0,58.1,46.0,-99.9,-99.9,-99.9,0,0,100,0.00,40.00,4,-124,11,0.01
2013-8-24,70.0,56.2,42.0,-99.9,-99.9,-99.9,0,0,100,0.00,40.00,1,-143,11,0.01
2013-8-25,68.0,47.1,45.0,-99.9,-99.9,-99.9,0,0,100,0.00,40.00,2,-333,10,0.01
2013-8-26,70.0,56.3,47.0,-99.9,-99.9,-99.9,0,0,100,0.00,40.00,3,-90,12,0.00
2013-8-27,73.0,56.8,45.0,-99.9,-99.9,-99.9,0,0,100,0.00,40.00,4,-166,9,0.00
2013-8-28,74.0,66.8,54.0,-99.9,-99.9,-99.9,0,0,100,0.00,40.00,3,-166,10,0.01
2013-8-29,75.0,56.3,42.0,-99.9,-99.9,-99.9,0,0,100,0.00,40.00,4,-266,13,0.01
2013-8-30,69.0,53.4,48.0,-99.9,-99.9,-99.9,0,0,100,0.00,40.00,0,-160,0,0.01
2013-8-31,71.0,52.7,42.0,-99.9,-99.9,-99.9,0,0,100,0.00,40.00,2,-103,11,0.00
2013-9-1,69.0,58.4,45.0,-99.9,-99.9,-99.9,0,0,100,0.00,40.00,1,-388,11,0.01
2013-9-2,76.0,59.4,45.0,-99.9,-99.9,-99.9,0,0,100,0.00,40.00,3,-149,11,0.00
2013-9-3,76.0,58.8,44.0,-99.9,-99.9,-99.9,0,0,100,0.00,40.00,0,-357,7,0.00
2013-9-4,75.0,60.9,47.0,-99.9,-99.9,-99.9,0,0,100,0.00,40.00,1,-200,11,0.00
2013-9-5,75.0,57.2,47.0,-99.9,-99.9,-99.9,0,0,100,0.00,40.00,1,-235,10,0.00
2013-9-6,76.0,55.9,42.0,-99.9,-99.9,-99.9,0,0,100,0.00,40.00,1,-187,11,0.00
2013-9-7,74.0,56.3,44.0,-99.9,-99.9,-99.9,0,0,100,0.00,40.00,0,-59,9,0.00
2013-9-8,69.0,55.4,42.0,-99.9,-99.9,-99.9,0,0,100,0.00,40.00,0,-333,0,0.01
2013-9-9,68.0,52.9,42.0,-99.9,-99.9,-99.9,0,0,100,0.00,40.00,0,-105,0,0.01
2013-9-10,66.0,55.2,48.0,-99.9,-99.9,-99.9,0,0,100,0.00,40.00,2,-66,12,0.02
2013-9-11,62.0,55.1,47.0,-99.9,-99.9,-99.9,0,0,100,0.00,40.00,0,-357,9,0.00
2013-9-12,63.0,54.1,47.0,-99.9,-99.9,-99.9,0,0,100,0.00,40.00,3,-230,12,0.00
2013-9-13,61.0,52.2,45.0,-99.9,-99.9,-99.9,0,0,100,0.00,40.00,3,-293,9,0.01
2013-9-14,59.0,48.9,43.0,-99.9,-99.9,-99.9,0,0,100,0.00,40.00,5,-221,14,0.01
2013-9-15,60.0,46.7,39.0,-99.9,-99.9,-99.9,0,0,100,0.00,40.00,5,-266,11,0.01
2013-9-16,62.0,48.1,37.0,-99.9,-99.9,-99.9,0,0,100,0.00,40.00,4,-234,12,0.00
2013-9-17,69.0,51.4,37.0,-99.9,-99.9,-99.9,0,0,100,0.00,40.00,4,-293,11,0.00
2013-9-18,46.0,43.4,42.0,-99.9,-99.9,-99.9,0,0,100,0.00,40.00,0,-333,0,0.02
2013-9-19,60.0,44.4,34.0,-99.9,-99.9,-99.9,0,0,100,0.00,40.00,5,-368,13,0.02
2013-9-20,65.0,46.9,29.0,-99.9,-99.9,-99.9,0,0,100,0.00,40.00,4,-249,9,0.00
2013-9-21,67.0,48.0,33.0,-99.9,-99.9,-99.9,0,0,100,0.00,40.00,5,-82,12,0.00
2013-9-22,59.0,46.1,38.0,-99.9,-99.9,-99.9,0,0,100,0.00,40.00,2,-102,17,0.02
2013-9-23,45.0,37.4,32.0,-99.9,-99.9,-99.9,0,0,100,0.00,40.00,1,-200,11,0.02
2013-9-24,64.0,44.3,28.0,-99.9,-99.9,-99.9,0,0,100,0.00,40.00,0,-166,7,0.00
2013-9-25,68.0,53.6,31.0,-99.9,-99.9,-99.9,0,0,100,0.00,40.00,0,-222,2,0.00
2013-9-26,68.0,56.7,40.0,-99.9,-99.9,-99.9,0,0,100,0.00,40.00,2,-582,13,0.00
2013-9-27,42.0,36.9,31.0,-99.9,-99.9,-99.9,0,0,100,0.00,40.00,2,-187,11,0.02
2013-9-28,51.0,32.1,22.0,-99.9,-99.9,-99.9,0,0,100,0.00,40.00,0,0,10,0.01
2013-9-29,61.0,43.8,27.0,-99.9,-99.9,-99.9,0,0,100,0.00,40.00,0,-272,1,0.00
2013-9-30,66.0,52.5,35.0,-99.9,-99.9,-99.9,0,0,100,0.00,40.00,0,-454,3,0.00
2013-10-1,67.0,47.3,37.0,-99.9,-99.9,-99.9,0,0,100,0.00,40.00,0,-333,0,0.00
2013-10-2,66.0,51.0,31.0,-99.9,-99.9,-99.9,0,0,100,0.00,40.00,0,-214,3,0.00
2013-10-3,63.0,47.8,32.0,-99.9,-99.9,-99.9,0,0,100,0.00,40.00,0,-280,0,0.00
2013-10-4,34.0,28.9,25.0,-99.9,-99.9,-99.9,0,0,100,0.00,40.00,3,-213,14,0.02
2013-10-5,38.0,29.0,19.0,-99.9,-99.9,-99.9,0,0,100,0.00,40.00,0,-83,9,0.01
2013-10-6,53.0,36.7,18.0,-99.9,-99.9,-99.9,0,0,100,0.00,40.00,0,-200,3,0.00
2013-10-7,60.0,40.9,28.0,-99.9,-99.9,-99.9,0,0,100,0.00,40.00,0,0,7,0.00
2013-10-8,64.0,46.5,30.0,-99.9,-99.9,-99.9,0,0,100,0.00,40.00,0,-166,0,0.00
2013-10-9,58.0,42.5,31.0,-99.9,-99.9,-99.9,0,0,100,0.00,40.00,0,-48,0,0.00
2013-10-10,51.0,43.4,35.0,-99.9,-99.9,-99.9,0,0,100,0.00,40.00,6,-57,18,0.00
2013-10-11,39.0,36.6,34.0,-99.9,-99.9,-99.9,0,0,100,0.00,40.00,1,0,13,0.01
2013-10-12,48.0,34.2,26.0,-99.9,-99.9,-99.9,0,0,100,0.00,40.00,0,-83,0,0.00
2013-10-13,58.0,44.0,26.0,-99.9,-99.9,-99.9,0,0,100,0.00,40.00,0,-111,7,0.00
2013-10-21,35.0,29.2,26.0,-99.9,-99.9,-99.9,0,0,100,0.00,40.00,0,-250,0,0.00
2013-10-22,51.0,33.6,21.0,-99.9,-99.9,-99.9,0,0,100,0.00,40.00,0,0,0,0.00
2013-10-24,55.0,34.7,49.0,-99.9,-99.9,-99.9,0,0,100,0.00,40.00,0,-333,0,0.00
2013-10-25,35.0,29.4,27.0,-99.9,-99.9,-99.9,0,0,100,0.00,40.00,0,-333,0,0.00
2013-10-26,48.0,19.6,25.0,-99.9,-99.9,-99.9,0,0,100,0.00,40.00,0,0,0,0.00
2013-10-27,49.0,27.3,33.0,-99.9,-99.9,-99.9,0,0,100,0.00,40.00,0,-333,0,0.00
2013-11-13,45.0,37.3,24.0,-99.9,-99.9,-99.9,0,0,100,0.00,40.00,0,-333,0,0.00
2013-11-14,45.0,31.8,23.0,-99.9,-99.9,-99.9,0,0,100,0.00,40.00,0,-749,0,0.00
2013-11-15,35.0,35.0,35.0,-99.9,-99.9,-99.9,0,0,100,0.00,40.00,0,-500,0,0.00
2013-11-16,28.0,20.0,19.0,-99.9,-99.9,-99.9,0,0,100,0.00,40.00,6,2,18,0.02
2013-11-17,37.0,37.0,37.0,-99.9,-99.9,-99.9,0,0,100,0.00,40.00,0,0,0,0.00
2013-11-18,44.0,22.9,10.0,-99.9,-99.9,-99.9,0,0,100,0.00,40.00,0,-272,0,0.00
2013-11-19,45.0,33.4,10.0,-99.9,-99.9,-99.9,0,0,100,0.00,40.00,0,-91,0,0.01
2013-11-20,35.0,32.1,30.0,-99.9,-99.9,-99.9,0,0,100,0.00,40.00,0,-428,0,0.01
2013-11-21,38.0,31.7,25.0,-99.9,-99.9,-99.9,0,0,100,0.00,40.00,0,-285,0,0.00
2013-11-22,29.0,20.3,15.0,-99.9,-99.9,-99.9,0,0,100,0.00,40.00,0,0,0,0.00
2013-11-23,41.0,33.1,24.0,-99.9,-99.9,-99.9,0,0,100,0.00,40.00,0,-103,0,0.01
2013-11-24,33.0,30.6,23.0,-99.9,-99.9,-99.9,0,0,100,0.00,40.00,0,-100,0,0.01
2013-11-25,28.0,22.5,15.0,-99.9,-99.9,-99.9,0,0,100,0.00,40.00,0,0,0,0.00
2013-11-26,36.0,22.9,13.0,-99.9,-99.9,-99.9,0,0,100,0.00,40.00,0,0,0,0.00
2013-11-27,40.0,25.0,8.0,-99.9,-99.9,-99.9,0,0,100,0.00,40.00,0,-143,0,0.00
2013-11-28,44.0,25.9,13.0,-99.9,-99.9,-99.9,0,0,100,0.00,40.00,0,-111,0,0.00
2013-11-29,43.0,27.8,14.0,-99.9,-99.9,-99.9,0,0,100,0.00,40.00,0,-500,0,0.00
2013-11-30,38.0,25.5,13.0,-99.9,-99.9,-99.9,0,0,100,0.00,40.00,0,-500,0,0.00
2013-12-2,38.0,35.8,32.0,-99.9,-99.9,-99.9,0,0,100,0.00,40.00,0,-500,0,0.00
2013-12-3,36.0,34.0,31.0,-99.9,-99.9,-99.9,0,0,100,0.00,40.00,0,-333,0,0.00
2013-12-4,20.0,10.2,5.0,-99.9,-99.9,-99.9,0,0,100,0.00,40.00,0,-400,8,0.02
2013-12-5,11.0,8.0,3.0,-99.9,-99.9,-99.9,0,0,100,0.00,40.00,0,-250,0,0.01
2013-12-6,10.0,-0.8,-7.0,-99.9,-99.9,-99.9,0,0,100,0.00,40.00,0,0,0,0.00
2013-12-7,15.0,8.5,3.0,-99.9,-99.9,-99.9,0,0,100,0.00,40.00,0,-166,0,0.01
2013-12-8,12.0,7.7,5.0,-99.9,-99.9,-99.9,0,0,100,0.00,40.00,0,-166,0,0.01
2013-12-9,5.0,-2.0,-12.0,-99.9,-99.9,-99.9,0,0,100,0.00,40.00,0,-250,0,0.00
2013-12-10,25.0,14.6,2.0,-99.9,-99.9,-99.9,0,0,100,0.00,40.00,0,0,4,0.01
2013-12-11,27.0,19.6,11.0,-99.9,-99.9,-99.9,0,0,100,0.00,40.00,0,-400,0,0.00
2013-12-12,-2.0,-2.0,-2.0,-99.9,-99.9,-99.9,0,0,100,0.00,40.00,0,-999,0,0.00
2013-12-13,33.0,15.4,15.0,-99.9,-99.9,-99.9,0,0,100,0.00,40.00,0,0,0,0.00
2013-12-14,22.0,8.8,22.0,-99.9,-99.9,-99.9,0,0,100,0.00,40.00,0,0,0,0.00
2013-12-15,31.0,27.5,24.0,-99.9,-99.9,-99.9,0,0,100,0.00,40.00,0,0,0,0.00
2013-12-16,44.0,26.5,14.0,-99.9,-99.9,-99.9,0,0,100,0.00,40.00,0,-500,0,0.00
2013-12-17,21.0,20.0,19.0,-99.9,-99.9,-99.9,0,0,100,0.00,40.00,0,-500,0,0.00
2013-12-18,12.0,12.0,12.0,-99.9,-99.9,-99.9,0,0,100,0.00,40.00,0,0,0,0.00
2013-12-19,41.0,26.4,17.0,-99.9,-99.9,-99.9,0,0,100,0.00,40.00,0,-285,1,0.00
2013-12-20,27.0,24.0,22.0,-99.9,-99.9,-99.9,0,0,100,0.00,40.00,0,0,0,0.01
2013-12-21,22.0,15.1,2.0,-99.9,-99.9,-99.9,0,0,100,0.00,40.00,0,-230,1,0.00
2013-12-22,24.0,20.5,15.0,-99.9,-99.9,-99.9,0,0,100,0.00,40.00,0,-166,0,0.00
2013-12-23,22.0,21.5,21.0,-99.9,-99.9,-99.9,0,0,100,0.00,40.00,0,-500,0,0.00
2013-12-24,34.0,28.6,17.0,-99.9,-99.9,-99.9,0,0,100,0.00,40.00,0,-285,0,0.01
2013-12-25,27.0,4.0,-8.0,-99.9,-99.9,-99.9,0,0,100,0.00,40.00,0,-333,0,0.00
2013-12-26,33.0,22.7,-3.0,-99.9,-99.9,-99.9,0,0,100,0.00,40.00,0,-500,0,0.00
2013-12-27,8.0,8.0,8.0,-99.9,-99.9,-99.9,0,0,100,0.00,40.00,0,0,0,0.00
2013-12-28,30.0,30.0,30.0,-99.9,-99.9,-99.9,0,0,100,0.00,40.00,0,-999,0,0.00
2013-12-29,20.0,17.5,15.0,-99.9,-99.9,-99.9,0,0,100,0.00,40.00,0,-500,0,0.00
2013-12-30,27.0,22.7,19.0,-99.9,-99.9,-99.9,0,0,100,0.00,40.00,0,0,0,0.00
2013-12-31,34.0,26.4,18.0,-99.9,-99.9,-99.9,0,0,100,0.00,40.00,0,-599,0,0.00